sensor_id;sensor_type;location;lat;lon;timestamp;temperature;humidity
55648;DHT22;45266;48.756;9.246;2023-04-25T00:00:53;7.00;99.90
55648;DHT22;45266;48.756;9.246;2023-04-25T00:01:55;7.00;99.90
55648;DHT22;45266;48.756;9.246;2023-04-25T00:02:58;7.00;99.90
55648;DHT22;45266;48.756;9.246;2023-04-25T00:04:01;7.00;99.90
55648;DHT22;45266;48.756;9.246;2023-04-25T00:05:04;7.00;99.90
55648;DHT22;45266;48.756;9.246;2023-04-25T00:06:07;7.00;99.90
55648;DHT22;45266;48.756;9.246;2023-04-25T00:07:09;7.00;99.90
55648;DHT22;45266;48.756;9.246;2023-04-25T00:08:11;7.00;99.90
55648;DHT22;45266;48.756;9.246;2023-04-25T00:09:12;7.00;99.90
55648;DHT22;45266;48.756;9.246;2023-04-25T00:10:14;7.10;99.90
55648;DHT22;45266;48.756;9.246;2023-04-25T00:11:16;7.00;99.90
55648;DHT22;45266;48.756;9.246;2023-04-25T00:12:18;7.00;99.90
55648;DHT22;45266;48.756;9.246;2023-04-25T00:13:20;7.10;99.90
55648;DHT22;45266;48.756;9.246;2023-04-25T00:14:23;7.10;99.90
55648;DHT22;45266;48.756;9.246;2023-04-25T00:15:24;7.10;99.90
55648;DHT22;45266;48.756;9.246;2023-04-25T00:16:26;7.10;99.90
55648;DHT22;45266;48.756;9.246;2023-04-25T00:17:30;7.10;99.90
55648;DHT22;45266;48.756;9.246;2023-04-25T00:18:32;7.10;99.90
55648;DHT22;45266;48.756;9.246;2023-04-25T00:19:34;7.10;99.90
55648;DHT22;45266;48.756;9.246;2023-04-25T00:20:36;7.10;99.90
55648;DHT22;45266;48.756;9.246;2023-04-25T00:21:38;7.10;99.90
55648;DHT22;45266;48.756;9.246;2023-04-25T00:22:42;7.10;99.90
55648;DHT22;45266;48.756;9.246;2023-04-25T00:23:44;7.10;99.90
55648;DHT22;45266;48.756;9.246;2023-04-25T00:24:47;7.10;99.90
55648;DHT22;45266;48.756;9.246;2023-04-25T00:25:50;7.10;99.90
55648;DHT22;45266;48.756;9.246;2023-04-25T00:26:52;7.00;99.90
55648;DHT22;45266;48.756;9.246;2023-04-25T00:27:54;7.00;99.90
55648;DHT22;45266;48.756;9.246;2023-04-25T00:28:56;7.10;99.90
55648;DHT22;45266;48.756;9.246;2023-04-25T00:29:58;6.90;99.90
55648;DHT22;45266;48.756;9.246;2023-04-25T00:30:59;7.00;99.90
55648;DHT22;45266;48.756;9.246;2023-04-25T00:32:01;7.10;99.90
55648;DHT22;45266;48.756;9.246;2023-04-25T00:33:03;7.10;99.90
55648;DHT22;45266;48.756;9.246;2023-04-25T00:34:08;7.00;99.90
55648;DHT22;45266;48.756;9.246;2023-04-25T00:35:10;7.10;99.90
55648;DHT22;45266;48.756;9.246;2023-04-25T00:36:12;7.10;99.90
55648;DHT22;45266;48.756;9.246;2023-04-25T00:37:14;7.10;99.90
55648;DHT22;45266;48.756;9.246;2023-04-25T00:38:16;7.10;99.90
55648;DHT22;45266;48.756;9.246;2023-04-25T00:39:18;7.10;99.90
55648;DHT22;45266;48.756;9.246;2023-04-25T00:40:19;7.10;99.90
55648;DHT22;45266;48.756;9.246;2023-04-25T00:41:21;7.10;99.90
55648;DHT22;45266;48.756;9.246;2023-04-25T00:42:24;7.10;99.90
55648;DHT22;45266;48.756;9.246;2023-04-25T00:43:27;7.10;99.90
55648;DHT22;45266;48.756;9.246;2023-04-25T00:44:30;7.10;99.90
55648;DHT22;45266;48.756;9.246;2023-04-25T00:45:34;7.10;99.90
55648;DHT22;45266;48.756;9.246;2023-04-25T00:46:39;7.10;99.90
55648;DHT22;45266;48.756;9.246;2023-04-25T00:47:42;7.10;99.90
55648;DHT22;45266;48.756;9.246;2023-04-25T00:48:44;7.10;99.90
55648;DHT22;45266;48.756;9.246;2023-04-25T00:49:46;7.10;99.90
55648;DHT22;45266;48.756;9.246;2023-04-25T00:50:53;7.10;99.90
55648;DHT22;45266;48.756;9.246;2023-04-25T00:51:56;7.10;99.90
55648;DHT22;45266;48.756;9.246;2023-04-25T00:52:58;7.10;99.90
55648;DHT22;45266;48.756;9.246;2023-04-25T00:54:00;7.10;99.90
55648;DHT22;45266;48.756;9.246;2023-04-25T00:55:03;7.20;99.90
55648;DHT22;45266;48.756;9.246;2023-04-25T00:56:05;7.10;99.90
55648;DHT22;45266;48.756;9.246;2023-04-25T00:57:07;7.10;99.90
55648;DHT22;45266;48.756;9.246;2023-04-25T00:58:09;7.20;99.90
55648;DHT22;45266;48.756;9.246;2023-04-25T00:59:11;7.10;99.90
55648;DHT22;45266;48.756;9.246;2023-04-25T01:00:13;7.00;99.90
55648;DHT22;45266;48.756;9.246;2023-04-25T01:01:16;7.00;99.90
55648;DHT22;45266;48.756;9.246;2023-04-25T01:02:19;7.00;99.90
55648;DHT22;45266;48.756;9.246;2023-04-25T01:03:22;7.00;99.90
55648;DHT22;45266;48.756;9.246;2023-04-25T01:04:26;7.00;99.90
55648;DHT22;45266;48.756;9.246;2023-04-25T01:05:28;7.00;99.90
55648;DHT22;45266;48.756;9.246;2023-04-25T01:06:31;7.00;99.90
55648;DHT22;45266;48.756;9.246;2023-04-25T01:07:33;7.00;99.90
55648;DHT22;45266;48.756;9.246;2023-04-25T01:08:37;7.00;99.90
55648;DHT22;45266;48.756;9.246;2023-04-25T01:09:39;7.00;99.90
55648;DHT22;45266;48.756;9.246;2023-04-25T01:10:41;7.00;99.90
55648;DHT22;45266;48.756;9.246;2023-04-25T01:11:43;7.00;99.90
55648;DHT22;45266;48.756;9.246;2023-04-25T01:12:44;7.10;99.90
55648;DHT22;45266;48.756;9.246;2023-04-25T01:13:46;7.00;99.90
55648;DHT22;45266;48.756;9.246;2023-04-25T01:14:49;7.00;99.90
55648;DHT22;45266;48.756;9.246;2023-04-25T01:15:51;7.10;99.90
55648;DHT22;45266;48.756;9.246;2023-04-25T01:16:53;7.10;99.90
55648;DHT22;45266;48.756;9.246;2023-04-25T01:17:55;7.10;99.90
55648;DHT22;45266;48.756;9.246;2023-04-25T01:18:57;7.10;99.90
55648;DHT22;45266;48.756;9.246;2023-04-25T01:19:59;7.10;99.90
55648;DHT22;45266;48.756;9.246;2023-04-25T01:21:10;7.10;99.90
55648;DHT22;45266;48.756;9.246;2023-04-25T01:22:12;7.10;99.90
55648;DHT22;45266;48.756;9.246;2023-04-25T01:23:14;7.10;99.90
55648;DHT22;45266;48.756;9.246;2023-04-25T01:24:16;7.10;99.90
55648;DHT22;45266;48.756;9.246;2023-04-25T01:25:19;7.10;99.90
55648;DHT22;45266;48.756;9.246;2023-04-25T01:26:21;7.10;99.90
55648;DHT22;45266;48.756;9.246;2023-04-25T01:27:23;7.10;99.90
55648;DHT22;45266;48.756;9.246;2023-04-25T01:28:25;7.10;99.90
55648;DHT22;45266;48.756;9.246;2023-04-25T01:29:28;7.10;99.90
55648;DHT22;45266;48.756;9.246;2023-04-25T01:30:30;7.20;99.90
55648;DHT22;45266;48.756;9.246;2023-04-25T01:31:32;7.10;99.90
55648;DHT22;45266;48.756;9.246;2023-04-25T01:32:34;7.10;99.90
55648;DHT22;45266;48.756;9.246;2023-04-25T01:33:40;7.00;99.90
55648;DHT22;45266;48.756;9.246;2023-04-25T01:34:42;7.10;99.90
55648;DHT22;45266;48.756;9.246;2023-04-25T01:35:44;7.10;99.90
55648;DHT22;45266;48.756;9.246;2023-04-25T01:36:49;7.10;99.90
55648;DHT22;45266;48.756;9.246;2023-04-25T01:37:51;7.10;99.90
55648;DHT22;45266;48.756;9.246;2023-04-25T01:38:53;7.10;99.90
55648;DHT22;45266;48.756;9.246;2023-04-25T01:39:56;7.00;99.90
55648;DHT22;45266;48.756;9.246;2023-04-25T01:40:59;7.10;99.90
55648;DHT22;45266;48.756;9.246;2023-04-25T01:42:01;7.10;99.90
55648;DHT22;45266;48.756;9.246;2023-04-25T01:43:03;7.10;99.90
55648;DHT22;45266;48.756;9.246;2023-04-25T01:44:05;7.10;99.90
55648;DHT22;45266;48.756;9.246;2023-04-25T01:45:08;7.10;99.90
55648;DHT22;45266;48.756;9.246;2023-04-25T01:46:11;7.10;99.90
55648;DHT22;45266;48.756;9.246;2023-04-25T01:47:13;7.10;99.90
55648;DHT22;45266;48.756;9.246;2023-04-25T01:48:15;7.10;99.90
55648;DHT22;45266;48.756;9.246;2023-04-25T01:49:17;7.10;99.90
55648;DHT22;45266;48.756;9.246;2023-04-25T01:50:19;7.10;99.90
55648;DHT22;45266;48.756;9.246;2023-04-25T01:51:21;7.10;99.90
55648;DHT22;45266;48.756;9.246;2023-04-25T01:52:23;7.10;99.90
55648;DHT22;45266;48.756;9.246;2023-04-25T01:53:25;7.10;99.90
55648;DHT22;45266;48.756;9.246;2023-04-25T01:54:27;7.10;99.90
55648;DHT22;45266;48.756;9.246;2023-04-25T01:55:29;7.10;99.90
55648;DHT22;45266;48.756;9.246;2023-04-25T01:56:32;7.10;99.90
55648;DHT22;45266;48.756;9.246;2023-04-25T01:57:34;7.10;99.90
55648;DHT22;45266;48.756;9.246;2023-04-25T01:58:35;7.00;99.90
55648;DHT22;45266;48.756;9.246;2023-04-25T01:59:38;7.00;99.90
55648;DHT22;45266;48.756;9.246;2023-04-25T02:00:39;7.00;99.90
55648;DHT22;45266;48.756;9.246;2023-04-25T02:01:42;7.10;99.90
55648;DHT22;45266;48.756;9.246;2023-04-25T02:02:44;7.00;99.90
55648;DHT22;45266;48.756;9.246;2023-04-25T02:03:46;7.00;99.90
55648;DHT22;45266;48.756;9.246;2023-04-25T02:04:49;7.00;99.90
55648;DHT22;45266;48.756;9.246;2023-04-25T02:05:51;7.00;99.90
55648;DHT22;45266;48.756;9.246;2023-04-25T02:06:52;6.90;99.90
55648;DHT22;45266;48.756;9.246;2023-04-25T02:07:54;7.00;99.90
55648;DHT22;45266;48.756;9.246;2023-04-25T02:08:56;7.00;99.90
55648;DHT22;45266;48.756;9.246;2023-04-25T02:09:58;7.00;99.90
55648;DHT22;45266;48.756;9.246;2023-04-25T02:11:00;7.00;99.90
55648;DHT22;45266;48.756;9.246;2023-04-25T02:12:01;7.10;99.90
55648;DHT22;45266;48.756;9.246;2023-04-25T02:13:03;7.00;99.90
55648;DHT22;45266;48.756;9.246;2023-04-25T02:14:06;7.00;99.90
55648;DHT22;45266;48.756;9.246;2023-04-25T02:15:08;7.00;99.90
55648;DHT22;45266;48.756;9.246;2023-04-25T02:16:10;7.00;99.90
55648;DHT22;45266;48.756;9.246;2023-04-25T02:17:12;6.80;99.90
55648;DHT22;45266;48.756;9.246;2023-04-25T02:18:15;6.90;99.90
55648;DHT22;45266;48.756;9.246;2023-04-25T02:19:20;6.90;99.90
55648;DHT22;45266;48.756;9.246;2023-04-25T02:20:23;6.90;99.90
55648;DHT22;45266;48.756;9.246;2023-04-25T02:21:25;6.90;99.90
55648;DHT22;45266;48.756;9.246;2023-04-25T02:22:27;6.90;99.90
55648;DHT22;45266;48.756;9.246;2023-04-25T02:23:31;6.90;99.90
55648;DHT22;45266;48.756;9.246;2023-04-25T02:24:33;6.90;99.90
55648;DHT22;45266;48.756;9.246;2023-04-25T02:25:36;6.90;99.90
55648;DHT22;45266;48.756;9.246;2023-04-25T02:26:38;6.90;99.90
55648;DHT22;45266;48.756;9.246;2023-04-25T02:27:39;6.90;99.90
55648;DHT22;45266;48.756;9.246;2023-04-25T02:28:41;6.90;99.90
55648;DHT22;45266;48.756;9.246;2023-04-25T02:29:43;6.90;99.90
55648;DHT22;45266;48.756;9.246;2023-04-25T02:30:45;6.90;99.90
55648;DHT22;45266;48.756;9.246;2023-04-25T02:31:46;6.90;99.90
55648;DHT22;45266;48.756;9.246;2023-04-25T02:32:49;6.90;99.90
55648;DHT22;45266;48.756;9.246;2023-04-25T02:33:51;6.90;99.90
55648;DHT22;45266;48.756;9.246;2023-04-25T02:34:53;6.90;99.90
55648;DHT22;45266;48.756;9.246;2023-04-25T02:35:55;6.80;99.90
55648;DHT22;45266;48.756;9.246;2023-04-25T02:36:57;6.90;99.90
55648;DHT22;45266;48.756;9.246;2023-04-25T02:37:59;6.90;99.90
55648;DHT22;45266;48.756;9.246;2023-04-25T02:39:01;6.90;99.90
55648;DHT22;45266;48.756;9.246;2023-04-25T02:40:04;6.80;99.90
55648;DHT22;45266;48.756;9.246;2023-04-25T02:41:06;6.80;99.90
55648;DHT22;45266;48.756;9.246;2023-04-25T02:42:08;6.80;99.90
55648;DHT22;45266;48.756;9.246;2023-04-25T02:43:10;6.80;99.90
55648;DHT22;45266;48.756;9.246;2023-04-25T02:44:12;6.80;99.90
55648;DHT22;45266;48.756;9.246;2023-04-25T02:45:13;6.80;99.90
55648;DHT22;45266;48.756;9.246;2023-04-25T02:46:15;6.80;99.90
55648;DHT22;45266;48.756;9.246;2023-04-25T02:47:29;6.80;99.90
55648;DHT22;45266;48.756;9.246;2023-04-25T02:48:31;6.80;99.90
55648;DHT22;45266;48.756;9.246;2023-04-25T02:49:33;6.80;99.90
55648;DHT22;45266;48.756;9.246;2023-04-25T02:50:35;6.80;99.90
55648;DHT22;45266;48.756;9.246;2023-04-25T02:51:37;6.80;99.90
55648;DHT22;45266;48.756;9.246;2023-04-25T02:52:38;6.80;99.90
55648;DHT22;45266;48.756;9.246;2023-04-25T02:53:40;6.80;99.90
55648;DHT22;45266;48.756;9.246;2023-04-25T02:54:42;6.80;99.90
55648;DHT22;45266;48.756;9.246;2023-04-25T02:55:44;6.80;99.90
55648;DHT22;45266;48.756;9.246;2023-04-25T02:56:46;6.80;99.90
55648;DHT22;45266;48.756;9.246;2023-04-25T02:57:48;6.80;99.90
55648;DHT22;45266;48.756;9.246;2023-04-25T02:58:49;6.80;99.90
55648;DHT22;45266;48.756;9.246;2023-04-25T02:59:51;6.80;99.90
55648;DHT22;45266;48.756;9.246;2023-04-25T03:00:53;6.80;99.90
55648;DHT22;45266;48.756;9.246;2023-04-25T03:01:56;6.80;99.90
55648;DHT22;45266;48.756;9.246;2023-04-25T03:02:58;6.70;99.90
55648;DHT22;45266;48.756;9.246;2023-04-25T03:04:00;6.70;99.90
55648;DHT22;45266;48.756;9.246;2023-04-25T03:05:01;6.70;99.90
55648;DHT22;45266;48.756;9.246;2023-04-25T03:06:04;6.70;99.90
55648;DHT22;45266;48.756;9.246;2023-04-25T03:07:06;6.70;99.90
55648;DHT22;45266;48.756;9.246;2023-04-25T03:08:08;6.70;99.90
55648;DHT22;45266;48.756;9.246;2023-04-25T03:09:10;6.60;99.90
55648;DHT22;45266;48.756;9.246;2023-04-25T03:10:12;6.70;99.90
55648;DHT22;45266;48.756;9.246;2023-04-25T03:11:14;6.70;99.90
55648;DHT22;45266;48.756;9.246;2023-04-25T03:12:16;6.70;99.90
55648;DHT22;45266;48.756;9.246;2023-04-25T03:13:18;6.60;99.90
55648;DHT22;45266;48.756;9.246;2023-04-25T03:14:21;6.70;99.90
55648;DHT22;45266;48.756;9.246;2023-04-25T03:15:22;6.60;99.90
55648;DHT22;45266;48.756;9.246;2023-04-25T03:16:24;6.70;99.90
55648;DHT22;45266;48.756;9.246;2023-04-25T03:17:26;6.60;99.90
55648;DHT22;45266;48.756;9.246;2023-04-25T03:18:28;6.70;99.90
55648;DHT22;45266;48.756;9.246;2023-04-25T03:19:30;6.60;99.90
55648;DHT22;45266;48.756;9.246;2023-04-25T03:20:32;6.60;99.90
55648;DHT22;45266;48.756;9.246;2023-04-25T03:21:34;6.70;99.90
55648;DHT22;45266;48.756;9.246;2023-04-25T03:22:36;6.60;99.90
55648;DHT22;45266;48.756;9.246;2023-04-25T03:23:38;6.60;99.90
55648;DHT22;45266;48.756;9.246;2023-04-25T03:24:40;6.70;99.90
55648;DHT22;45266;48.756;9.246;2023-04-25T03:25:42;6.70;99.90
55648;DHT22;45266;48.756;9.246;2023-04-25T03:26:44;6.70;99.90
55648;DHT22;45266;48.756;9.246;2023-04-25T03:27:46;6.70;99.90
55648;DHT22;45266;48.756;9.246;2023-04-25T03:28:47;6.70;99.90
55648;DHT22;45266;48.756;9.246;2023-04-25T03:29:49;6.70;99.90
55648;DHT22;45266;48.756;9.246;2023-04-25T03:30:51;6.70;99.90
55648;DHT22;45266;48.756;9.246;2023-04-25T03:31:53;6.80;99.90
55648;DHT22;45266;48.756;9.246;2023-04-25T03:32:54;6.80;99.90
55648;DHT22;45266;48.756;9.246;2023-04-25T03:33:57;6.80;99.90
55648;DHT22;45266;48.756;9.246;2023-04-25T03:34:58;6.80;99.90
55648;DHT22;45266;48.756;9.246;2023-04-25T03:36:00;6.70;99.90
55648;DHT22;45266;48.756;9.246;2023-04-25T03:37:02;6.70;99.90
55648;DHT22;45266;48.756;9.246;2023-04-25T03:38:04;6.80;99.90
55648;DHT22;45266;48.756;9.246;2023-04-25T03:39:05;6.70;99.90
55648;DHT22;45266;48.756;9.246;2023-04-25T03:40:08;6.70;99.90
55648;DHT22;45266;48.756;9.246;2023-04-25T03:41:10;6.70;99.90
55648;DHT22;45266;48.756;9.246;2023-04-25T03:42:12;6.70;99.90
55648;DHT22;45266;48.756;9.246;2023-04-25T03:43:13;6.70;99.90
55648;DHT22;45266;48.756;9.246;2023-04-25T03:44:16;6.70;99.90
55648;DHT22;45266;48.756;9.246;2023-04-25T03:45:17;6.60;99.90
55648;DHT22;45266;48.756;9.246;2023-04-25T03:46:19;6.60;99.90
55648;DHT22;45266;48.756;9.246;2023-04-25T03:47:21;6.60;99.90
55648;DHT22;45266;48.756;9.246;2023-04-25T03:48:23;6.60;99.90
55648;DHT22;45266;48.756;9.246;2023-04-25T03:49:27;6.60;99.90
55648;DHT22;45266;48.756;9.246;2023-04-25T03:50:29;6.60;99.90
55648;DHT22;45266;48.756;9.246;2023-04-25T03:51:31;6.60;99.90
55648;DHT22;45266;48.756;9.246;2023-04-25T03:52:32;6.60;99.90
55648;DHT22;45266;48.756;9.246;2023-04-25T03:53:34;6.60;99.90
55648;DHT22;45266;48.756;9.246;2023-04-25T03:54:36;6.50;99.90
55648;DHT22;45266;48.756;9.246;2023-04-25T03:55:38;6.60;99.90
55648;DHT22;45266;48.756;9.246;2023-04-25T03:56:41;6.60;99.90
55648;DHT22;45266;48.756;9.246;2023-04-25T03:57:43;6.60;99.90
55648;DHT22;45266;48.756;9.246;2023-04-25T03:58:44;6.60;99.90
55648;DHT22;45266;48.756;9.246;2023-04-25T03:59:46;6.60;99.90
55648;DHT22;45266;48.756;9.246;2023-04-25T04:00:48;6.60;99.90
55648;DHT22;45266;48.756;9.246;2023-04-25T04:01:50;6.50;99.90
55648;DHT22;45266;48.756;9.246;2023-04-25T04:02:51;6.50;99.90
55648;DHT22;45266;48.756;9.246;2023-04-25T04:03:53;6.60;99.90
55648;DHT22;45266;48.756;9.246;2023-04-25T04:04:56;6.50;99.90
55648;DHT22;45266;48.756;9.246;2023-04-25T04:05:58;6.50;99.90
55648;DHT22;45266;48.756;9.246;2023-04-25T04:07:00;6.50;99.90
55648;DHT22;45266;48.756;9.246;2023-04-25T04:08:02;6.50;99.90
55648;DHT22;45266;48.756;9.246;2023-04-25T04:09:04;6.40;99.90
55648;DHT22;45266;48.756;9.246;2023-04-25T04:10:10;6.40;99.90
55648;DHT22;45266;48.756;9.246;2023-04-25T04:11:12;6.40;99.90
55648;DHT22;45266;48.756;9.246;2023-04-25T04:12:14;6.40;99.90
55648;DHT22;45266;48.756;9.246;2023-04-25T04:13:16;6.40;99.90
55648;DHT22;45266;48.756;9.246;2023-04-25T04:14:17;6.40;99.90
55648;DHT22;45266;48.756;9.246;2023-04-25T04:15:19;6.40;99.90
55648;DHT22;45266;48.756;9.246;2023-04-25T04:16:21;6.30;99.90
55648;DHT22;45266;48.756;9.246;2023-04-25T04:17:24;6.30;99.90
55648;DHT22;45266;48.756;9.246;2023-04-25T04:18:26;6.30;99.90
55648;DHT22;45266;48.756;9.246;2023-04-25T04:19:28;6.30;99.90
55648;DHT22;45266;48.756;9.246;2023-04-25T04:20:30;6.30;99.90
55648;DHT22;45266;48.756;9.246;2023-04-25T04:21:32;6.30;99.90
55648;DHT22;45266;48.756;9.246;2023-04-25T04:22:35;6.20;99.90
55648;DHT22;45266;48.756;9.246;2023-04-25T04:23:37;6.20;99.90
55648;DHT22;45266;48.756;9.246;2023-04-25T04:24:40;6.30;99.90
55648;DHT22;45266;48.756;9.246;2023-04-25T04:25:45;6.20;99.90
55648;DHT22;45266;48.756;9.246;2023-04-25T04:26:48;6.10;99.90
55648;DHT22;45266;48.756;9.246;2023-04-25T04:27:50;6.20;99.90
55648;DHT22;45266;48.756;9.246;2023-04-25T04:28:56;6.20;99.90
55648;DHT22;45266;48.756;9.246;2023-04-25T04:29:58;6.20;99.90
55648;DHT22;45266;48.756;9.246;2023-04-25T04:30:59;6.20;99.90
55648;DHT22;45266;48.756;9.246;2023-04-25T04:32:02;6.20;99.90
55648;DHT22;45266;48.756;9.246;2023-04-25T04:33:04;6.20;99.90
55648;DHT22;45266;48.756;9.246;2023-04-25T04:34:06;6.20;99.90
55648;DHT22;45266;48.756;9.246;2023-04-25T04:35:08;6.20;99.90
55648;DHT22;45266;48.756;9.246;2023-04-25T04:36:10;6.20;99.90
55648;DHT22;45266;48.756;9.246;2023-04-25T04:37:12;6.20;99.90
55648;DHT22;45266;48.756;9.246;2023-04-25T04:38:14;6.20;99.90
55648;DHT22;45266;48.756;9.246;2023-04-25T04:39:20;6.20;99.90
55648;DHT22;45266;48.756;9.246;2023-04-25T04:40:21;6.20;99.90
55648;DHT22;45266;48.756;9.246;2023-04-25T04:41:23;6.30;99.90
55648;DHT22;45266;48.756;9.246;2023-04-25T04:42:25;6.30;99.90
55648;DHT22;45266;48.756;9.246;2023-04-25T04:43:27;6.30;99.90
55648;DHT22;45266;48.756;9.246;2023-04-25T04:44:30;6.30;99.90
55648;DHT22;45266;48.756;9.246;2023-04-25T04:45:34;6.30;99.90
55648;DHT22;45266;48.756;9.246;2023-04-25T04:46:35;6.30;99.90
55648;DHT22;45266;48.756;9.246;2023-04-25T04:47:43;6.30;99.90
55648;DHT22;45266;48.756;9.246;2023-04-25T04:48:47;6.30;99.90
55648;DHT22;45266;48.756;9.246;2023-04-25T04:49:49;6.30;99.90
55648;DHT22;45266;48.756;9.246;2023-04-25T04:50:50;6.40;99.90
55648;DHT22;45266;48.756;9.246;2023-04-25T04:51:52;6.40;99.90
55648;DHT22;45266;48.756;9.246;2023-04-25T04:52:56;6.40;99.90
55648;DHT22;45266;48.756;9.246;2023-04-25T04:53:58;6.40;99.90
55648;DHT22;45266;48.756;9.246;2023-04-25T04:55:04;6.40;99.90
55648;DHT22;45266;48.756;9.246;2023-04-25T04:56:06;6.40;99.90
55648;DHT22;45266;48.756;9.246;2023-04-25T04:57:08;6.50;99.90
55648;DHT22;45266;48.756;9.246;2023-04-25T04:58:10;6.50;99.90
55648;DHT22;45266;48.756;9.246;2023-04-25T04:59:12;6.50;99.90
55648;DHT22;45266;48.756;9.246;2023-04-25T05:00:14;6.60;99.90
55648;DHT22;45266;48.756;9.246;2023-04-25T05:01:17;6.60;99.90
55648;DHT22;45266;48.756;9.246;2023-04-25T05:02:19;6.50;99.90
55648;DHT22;45266;48.756;9.246;2023-04-25T05:03:21;6.60;99.90
55648;DHT22;45266;48.756;9.246;2023-04-25T05:04:23;6.60;99.90
55648;DHT22;45266;48.756;9.246;2023-04-25T05:05:25;6.70;99.90
55648;DHT22;45266;48.756;9.246;2023-04-25T05:06:27;6.70;99.90
55648;DHT22;45266;48.756;9.246;2023-04-25T05:07:30;6.70;99.90
55648;DHT22;45266;48.756;9.246;2023-04-25T05:08:32;6.60;99.90
55648;DHT22;45266;48.756;9.246;2023-04-25T05:09:34;6.70;99.90
55648;DHT22;45266;48.756;9.246;2023-04-25T05:10:35;6.70;99.90
55648;DHT22;45266;48.756;9.246;2023-04-25T05:11:37;6.70;99.90
55648;DHT22;45266;48.756;9.246;2023-04-25T05:12:39;6.70;99.90
55648;DHT22;45266;48.756;9.246;2023-04-25T05:13:40;6.70;99.90
55648;DHT22;45266;48.756;9.246;2023-04-25T05:14:42;6.80;99.90
55648;DHT22;45266;48.756;9.246;2023-04-25T05:15:44;6.70;99.90
55648;DHT22;45266;48.756;9.246;2023-04-25T05:16:46;6.80;99.90
55648;DHT22;45266;48.756;9.246;2023-04-25T05:17:48;6.80;99.90
55648;DHT22;45266;48.756;9.246;2023-04-25T05:18:50;6.80;99.90
55648;DHT22;45266;48.756;9.246;2023-04-25T05:19:52;6.80;99.90
55648;DHT22;45266;48.756;9.246;2023-04-25T05:20:54;6.80;99.90
55648;DHT22;45266;48.756;9.246;2023-04-25T05:21:56;6.90;99.90
55648;DHT22;45266;48.756;9.246;2023-04-25T05:22:57;6.90;99.90
55648;DHT22;45266;48.756;9.246;2023-04-25T05:23:59;6.90;99.90
55648;DHT22;45266;48.756;9.246;2023-04-25T05:25:01;6.90;99.90
55648;DHT22;45266;48.756;9.246;2023-04-25T05:26:04;7.00;99.90
55648;DHT22;45266;48.756;9.246;2023-04-25T05:27:06;7.00;99.90
55648;DHT22;45266;48.756;9.246;2023-04-25T05:28:10;7.00;99.90
55648;DHT22;45266;48.756;9.246;2023-04-25T05:29:12;7.10;99.90
55648;DHT22;45266;48.756;9.246;2023-04-25T05:30:14;7.10;99.90
55648;DHT22;45266;48.756;9.246;2023-04-25T05:31:15;7.20;99.90
55648;DHT22;45266;48.756;9.246;2023-04-25T05:32:17;7.20;99.90
55648;DHT22;45266;48.756;9.246;2023-04-25T05:33:19;7.20;99.90
55648;DHT22;45266;48.756;9.246;2023-04-25T05:34:21;7.20;99.90
55648;DHT22;45266;48.756;9.246;2023-04-25T05:35:23;7.20;99.90
55648;DHT22;45266;48.756;9.246;2023-04-25T05:36:25;7.30;99.90
55648;DHT22;45266;48.756;9.246;2023-04-25T05:37:27;7.30;99.90
55648;DHT22;45266;48.756;9.246;2023-04-25T05:38:29;7.30;99.90
55648;DHT22;45266;48.756;9.246;2023-04-25T05:39:33;7.30;99.90
55648;DHT22;45266;48.756;9.246;2023-04-25T05:40:35;7.40;99.90
55648;DHT22;45266;48.756;9.246;2023-04-25T05:41:37;7.50;99.90
55648;DHT22;45266;48.756;9.246;2023-04-25T05:42:39;7.40;99.90
55648;DHT22;45266;48.756;9.246;2023-04-25T05:43:41;7.50;99.90
55648;DHT22;45266;48.756;9.246;2023-04-25T05:44:46;7.50;99.90
55648;DHT22;45266;48.756;9.246;2023-04-25T05:45:48;7.50;99.90
55648;DHT22;45266;48.756;9.246;2023-04-25T05:46:50;7.50;99.90
55648;DHT22;45266;48.756;9.246;2023-04-25T05:47:52;7.60;99.90
55648;DHT22;45266;48.756;9.246;2023-04-25T05:48:54;7.60;99.90
55648;DHT22;45266;48.756;9.246;2023-04-25T05:49:55;7.60;99.90
55648;DHT22;45266;48.756;9.246;2023-04-25T05:50:57;7.70;99.90
55648;DHT22;45266;48.756;9.246;2023-04-25T05:51:59;7.70;99.90
55648;DHT22;45266;48.756;9.246;2023-04-25T05:53:01;7.80;99.90
55648;DHT22;45266;48.756;9.246;2023-04-25T05:54:02;7.80;99.90
55648;DHT22;45266;48.756;9.246;2023-04-25T05:55:05;7.90;99.90
55648;DHT22;45266;48.756;9.246;2023-04-25T05:56:07;7.90;99.90
55648;DHT22;45266;48.756;9.246;2023-04-25T05:57:21;8.00;99.90
55648;DHT22;45266;48.756;9.246;2023-04-25T05:58:23;8.10;99.90
55648;DHT22;45266;48.756;9.246;2023-04-25T05:59:25;8.00;99.90
55648;DHT22;45266;48.756;9.246;2023-04-25T06:00:27;8.20;99.90
55648;DHT22;45266;48.756;9.246;2023-04-25T06:01:29;8.20;99.90
55648;DHT22;45266;48.756;9.246;2023-04-25T06:02:31;8.30;99.90
55648;DHT22;45266;48.756;9.246;2023-04-25T06:03:33;8.30;99.90
55648;DHT22;45266;48.756;9.246;2023-04-25T06:04:35;8.30;99.90
55648;DHT22;45266;48.756;9.246;2023-04-25T06:05:37;8.40;99.90
55648;DHT22;45266;48.756;9.246;2023-04-25T06:06:39;8.40;99.90
55648;DHT22;45266;48.756;9.246;2023-04-25T06:07:41;8.40;99.90
55648;DHT22;45266;48.756;9.246;2023-04-25T06:08:42;8.40;99.90
55648;DHT22;45266;48.756;9.246;2023-04-25T06:09:44;8.40;99.90
55648;DHT22;45266;48.756;9.246;2023-04-25T06:10:46;8.40;99.90
55648;DHT22;45266;48.756;9.246;2023-04-25T06:11:48;8.30;99.90
55648;DHT22;45266;48.756;9.246;2023-04-25T06:12:50;8.30;99.90
55648;DHT22;45266;48.756;9.246;2023-04-25T06:13:52;8.30;99.90
55648;DHT22;45266;48.756;9.246;2023-04-25T06:14:54;8.40;99.90
55648;DHT22;45266;48.756;9.246;2023-04-25T06:15:56;8.30;99.90
55648;DHT22;45266;48.756;9.246;2023-04-25T06:16:58;8.30;99.90
55648;DHT22;45266;48.756;9.246;2023-04-25T06:17:59;8.30;99.90
55648;DHT22;45266;48.756;9.246;2023-04-25T06:19:01;8.30;99.90
55648;DHT22;45266;48.756;9.246;2023-04-25T06:20:03;8.40;99.90
55648;DHT22;45266;48.756;9.246;2023-04-25T06:21:07;8.30;99.90
55648;DHT22;45266;48.756;9.246;2023-04-25T06:22:09;8.30;99.90
55648;DHT22;45266;48.756;9.246;2023-04-25T06:23:11;8.30;99.90
55648;DHT22;45266;48.756;9.246;2023-04-25T06:24:13;8.40;99.90
55648;DHT22;45266;48.756;9.246;2023-04-25T06:25:15;8.30;99.90
55648;DHT22;45266;48.756;9.246;2023-04-25T06:26:17;8.40;99.90
55648;DHT22;45266;48.756;9.246;2023-04-25T06:27:18;8.40;99.90
55648;DHT22;45266;48.756;9.246;2023-04-25T06:28:20;8.40;99.90
55648;DHT22;45266;48.756;9.246;2023-04-25T06:29:23;8.50;99.90
55648;DHT22;45266;48.756;9.246;2023-04-25T06:30:25;8.50;99.90
55648;DHT22;45266;48.756;9.246;2023-04-25T06:31:27;8.50;99.90
55648;DHT22;45266;48.756;9.246;2023-04-25T06:32:30;8.50;99.90
55648;DHT22;45266;48.756;9.246;2023-04-25T06:33:32;8.50;99.90
55648;DHT22;45266;48.756;9.246;2023-04-25T06:34:33;8.50;99.90
55648;DHT22;45266;48.756;9.246;2023-04-25T06:35:35;8.50;99.90
55648;DHT22;45266;48.756;9.246;2023-04-25T06:36:37;8.60;99.90
55648;DHT22;45266;48.756;9.246;2023-04-25T06:37:39;8.60;99.90
55648;DHT22;45266;48.756;9.246;2023-04-25T06:38:41;8.60;99.90
55648;DHT22;45266;48.756;9.246;2023-04-25T06:39:43;8.60;99.90